createdAt,value
2022-07-30T00:00:46.285Z,22.80
2022-07-30T00:03:21.278Z,22.80
2022-07-30T00:05:55.813Z,22.80
2022-07-30T00:08:29.872Z,22.80
2022-07-30T00:11:03.913Z,22.70
2022-07-30T00:13:37.675Z,22.70
2022-07-30T00:16:12.620Z,22.70
2022-07-30T00:18:46.352Z,22.60
2022-07-30T00:21:35.899Z,22.60
2022-07-30T00:24:10.112Z,22.60
2022-07-30T00:26:43.679Z,22.50
2022-07-30T00:29:17.158Z,22.50
2022-07-30T00:31:51.971Z,22.40
2022-07-30T00:34:26.161Z,22.40
2022-07-30T00:36:59.812Z,22.40
2022-07-30T00:39:33.926Z,22.30
2022-07-30T00:42:07.578Z,22.30
2022-07-30T00:44:41.329Z,22.20
2022-07-30T00:47:16.304Z,22.20
2022-07-30T00:49:49.760Z,22.20
2022-07-30T00:52:23.445Z,22.10
2022-07-30T00:54:57.297Z,22.10
2022-07-30T00:57:31.111Z,22.00
2022-07-30T01:00:08.707Z,22.00
2022-07-30T01:02:44.078Z,21.90
2022-07-30T01:05:18.231Z,21.90
2022-07-30T01:07:52.504Z,21.80
2022-07-30T01:10:26.498Z,21.80
2022-07-30T01:13:02.073Z,21.70
2022-07-30T01:15:36.836Z,21.70
2022-07-30T01:18:16.096Z,21.70
2022-07-30T01:21:03.997Z,21.60
2022-07-30T01:23:46.764Z,21.60
2022-07-30T01:26:23.734Z,21.50
2022-07-30T01:28:59.577Z,21.50
2022-07-30T01:31:35.931Z,21.40
2022-07-30T01:34:13.195Z,21.40
2022-07-30T01:36:48.552Z,21.40
2022-07-30T01:39:22.883Z,21.30
2022-07-30T01:42:00.076Z,21.20
2022-07-30T01:44:35.099Z,21.20
2022-07-30T01:47:11.083Z,21.20
2022-07-30T01:49:47.595Z,21.10
2022-07-30T01:52:23.463Z,21.10
2022-07-30T01:55:00.523Z,21.00
2022-07-30T01:57:40.041Z,21.00
2022-07-30T02:00:15.358Z,20.90
2022-07-30T02:02:48.878Z,20.90
2022-07-30T02:05:22.600Z,20.90
2022-07-30T02:08:04.342Z,20.70
2022-07-30T02:10:46.526Z,20.80
2022-07-30T02:13:27.854Z,20.80
2022-07-30T02:16:11.034Z,20.70
2022-07-30T02:19:01.062Z,20.70
2022-07-30T02:21:50.477Z,20.70
2022-07-30T02:24:33.496Z,20.70
2022-07-30T02:27:13.999Z,20.60
2022-07-30T02:29:50.671Z,20.60
2022-07-30T02:32:27.001Z,20.50
2022-07-30T02:35:10.412Z,20.50
2022-07-30T02:37:46.824Z,20.50
2022-07-30T02:40:23.141Z,20.40
2022-07-30T02:42:57.913Z,20.50
2022-07-30T02:45:33.264Z,20.40
2022-07-30T02:48:11.473Z,20.30
2022-07-30T02:51:07.719Z,20.30
2022-07-30T02:53:45.087Z,20.30
2022-07-30T02:56:22.483Z,20.30
2022-07-30T02:58:57.537Z,20.20
2022-07-30T03:01:34.805Z,20.20
2022-07-30T03:04:10.889Z,20.20
2022-07-30T03:06:46.448Z,20.20
2022-07-30T03:09:21.447Z,20.20
2022-07-30T03:11:57.293Z,20.20
2022-07-30T03:14:32.104Z,20.10
2022-07-30T03:17:09.986Z,20.10
2022-07-30T03:19:46.943Z,20.10
2022-07-30T03:22:23.483Z,20.10
2022-07-30T03:24:59.242Z,20.10
2022-07-30T03:27:34.260Z,20.00
2022-07-30T03:30:09.842Z,20.10
2022-07-30T03:32:45.981Z,20.00
2022-07-30T03:35:21.945Z,20.00
2022-07-30T03:37:56.954Z,20.00
2022-07-30T03:40:32.269Z,20.00
2022-07-30T03:43:06.308Z,19.90
2022-07-30T03:46:02.312Z,19.90
2022-07-30T03:48:39.259Z,19.90
2022-07-30T03:51:13.854Z,19.90
2022-07-30T03:53:47.738Z,19.80
2022-07-30T03:56:22.295Z,19.80
2022-07-30T03:58:56.074Z,19.80
2022-07-30T04:01:30.939Z,19.70
2022-07-30T04:04:10.911Z,19.70
2022-07-30T04:06:44.544Z,19.70
2022-07-30T04:09:21.269Z,19.70
2022-07-30T04:11:54.896Z,19.60
2022-07-30T04:14:28.552Z,19.60
2022-07-30T04:17:07.136Z,19.60
2022-07-30T04:19:49.299Z,19.60
2022-07-30T04:22:31.535Z,19.60
2022-07-30T04:25:07.580Z,19.60
2022-07-30T04:28:03.126Z,19.50
2022-07-30T04:30:36.219Z,19.50
2022-07-30T04:33:10.172Z,19.50
2022-07-30T04:35:51.256Z,19.50
2022-07-30T04:38:25.928Z,19.50
2022-07-30T04:40:59.281Z,19.40
2022-07-30T04:43:32.697Z,19.40
2022-07-30T04:46:06.467Z,19.50
2022-07-30T04:48:40.012Z,19.40
2022-07-30T04:51:25.320Z,19.40
2022-07-30T04:54:00.426Z,19.40
2022-07-30T04:56:37.631Z,19.40
2022-07-30T04:59:12.238Z,19.40
2022-07-30T05:01:51.346Z,19.40
2022-07-30T05:04:28.546Z,19.40
2022-07-30T05:07:05.169Z,19.40
2022-07-30T05:09:39.410Z,19.50
2022-07-30T05:12:17.072Z,19.50
2022-07-30T05:14:50.717Z,19.50
2022-07-30T05:17:24.213Z,19.50
2022-07-30T05:19:57.718Z,19.60
2022-07-30T05:22:33.468Z,19.60
2022-07-30T05:25:15.789Z,19.60
2022-07-30T05:27:51.345Z,19.60
2022-07-30T05:30:27.554Z,19.70
2022-07-30T05:33:01.370Z,19.80
2022-07-30T05:35:37.176Z,19.70
2022-07-30T05:38:11.981Z,19.80
2022-07-30T05:40:46.540Z,19.80
2022-07-30T05:43:20.072Z,19.80
2022-07-30T05:45:53.606Z,19.80
2022-07-30T05:48:27.993Z,19.80
2022-07-30T05:51:01.481Z,19.90
2022-07-30T05:53:36.287Z,19.90
2022-07-30T05:56:09.764Z,20.00
2022-07-30T05:58:43.677Z,20.00
2022-07-30T06:01:17.343Z,20.10
2022-07-30T06:03:50.933Z,20.10
2022-07-30T06:06:24.306Z,20.10
2022-07-30T06:08:59.155Z,20.20
2022-07-30T06:11:32.663Z,20.20
2022-07-30T06:14:06.270Z,20.20
2022-07-30T06:16:39.816Z,20.30
2022-07-30T06:19:19.337Z,20.30
2022-07-30T06:22:06.038Z,20.30
2022-07-30T06:24:41.819Z,20.40
2022-07-30T06:27:15.518Z,20.40
2022-07-30T06:29:49.108Z,20.40
2022-07-30T06:32:22.629Z,20.40
2022-07-30T06:35:03.962Z,20.50
2022-07-30T06:38:06.343Z,20.50
2022-07-30T06:40:33.461Z,20.60
2022-07-30T06:43:07.240Z,20.60
2022-07-30T06:45:40.689Z,20.60
2022-07-30T06:48:14.558Z,20.60
2022-07-30T06:50:47.953Z,20.60
2022-07-30T06:53:21.524Z,20.70
2022-07-30T06:56:00.226Z,20.70
2022-07-30T06:58:34.153Z,20.70
2022-07-30T07:01:11.304Z,20.70
2022-07-30T07:03:44.997Z,20.80
2022-07-30T07:06:18.576Z,20.70
2022-07-30T07:08:51.975Z,20.80
2022-07-30T07:11:27.075Z,20.80
2022-07-30T07:14:04.562Z,20.80
2022-07-30T07:16:38.518Z,20.80
2022-07-30T07:19:13.522Z,20.70
2022-07-30T07:22:05.570Z,20.70
2022-07-30T07:24:39.027Z,20.80
2022-07-30T07:27:15.432Z,20.80
2022-07-30T07:30:01.539Z,20.80
2022-07-30T07:32:39.677Z,20.80
2022-07-30T07:35:13.871Z,20.80
2022-07-30T07:37:47.549Z,20.80
2022-07-30T07:40:21.308Z,20.80
2022-07-30T07:42:59.331Z,20.80
2022-07-30T07:45:32.822Z,20.80
2022-07-30T07:48:07.215Z,20.80
2022-07-30T07:50:40.853Z,20.80
2022-07-30T07:53:14.432Z,20.80
2022-07-30T07:55:48.057Z,20.80
2022-07-30T07:58:26.175Z,20.90
2022-07-30T08:01:00.366Z,20.90
2022-07-30T08:03:34.046Z,20.90
2022-07-30T08:06:10.835Z,21.00
2022-07-30T08:08:46.685Z,21.10
2022-07-30T08:11:20.196Z,21.20
2022-07-30T08:13:55.335Z,21.20
2022-07-30T08:16:30.079Z,21.40
2022-07-30T08:19:03.774Z,21.50
2022-07-30T08:21:37.518Z,21.60
2022-07-30T08:24:11.263Z,21.70
2022-07-30T08:26:44.799Z,21.80
2022-07-30T08:29:19.586Z,21.90
2022-07-30T08:31:53.186Z,22.00
2022-07-30T08:34:27.350Z,22.10
2022-07-30T08:37:01.638Z,22.20
2022-07-30T08:39:35.047Z,22.30
2022-07-30T08:42:09.480Z,22.40
2022-07-30T08:44:47.146Z,22.50
2022-07-30T08:47:29.098Z,22.60
2022-07-30T08:50:05.543Z,22.70
2022-07-30T08:52:40.171Z,22.80
2022-07-30T08:55:14.538Z,22.80
2022-07-30T08:57:48.464Z,22.90
2022-07-30T09:00:23.632Z,23.00
2022-07-30T09:02:57.317Z,23.10
2022-07-30T09:05:30.798Z,23.30
2022-07-30T09:08:08.956Z,23.30
2022-07-30T09:10:52.708Z,23.40
2022-07-30T09:13:30.253Z,23.60
2022-07-30T09:16:07.065Z,23.70
2022-07-30T09:18:44.434Z,23.80
2022-07-30T09:21:25.824Z,23.90
2022-07-30T09:24:02.802Z,23.80
2022-07-30T09:26:56.061Z,24.20
2022-07-30T09:29:31.367Z,24.30
2022-07-30T09:32:09.468Z,24.40
2022-07-30T09:34:42.893Z,24.50
2022-07-30T09:37:20.690Z,24.60
2022-07-30T09:39:59.100Z,24.70
2022-07-30T09:42:33.085Z,24.80
2022-07-30T09:45:11.493Z,24.90
2022-07-30T09:47:48.448Z,25.00
2022-07-30T09:50:30.331Z,25.10
2022-07-30T09:53:11.898Z,25.20
2022-07-30T09:55:46.137Z,25.30
2022-07-30T09:58:27.434Z,25.40
2022-07-30T10:01:02.873Z,25.50
2022-07-30T10:03:44.175Z,25.60
2022-07-30T10:06:20.569Z,25.70
2022-07-30T10:08:54.027Z,25.90
2022-07-30T10:11:31.310Z,26.00
2022-07-30T10:14:05.750Z,26.10
2022-07-30T10:16:39.893Z,26.20
2022-07-30T10:19:18.215Z,26.30
2022-07-30T10:21:57.965Z,26.40
2022-07-30T10:24:36.386Z,26.50
2022-07-30T10:27:10.844Z,26.60
2022-07-30T10:29:46.526Z,26.70
2022-07-30T10:32:27.464Z,26.90
2022-07-30T10:35:07.354Z,26.90
2022-07-30T10:37:54.169Z,27.10
2022-07-30T10:40:34.367Z,27.20
2022-07-30T10:44:09.202Z,27.30
2022-07-30T10:47:01.295Z,27.40
2022-07-30T10:49:43.004Z,27.50
2022-07-30T10:52:50.611Z,27.60
2022-07-30T10:55:37.517Z,27.70
2022-07-30T10:58:15.641Z,27.80
2022-07-30T11:01:01.666Z,27.90
2022-07-30T11:03:40.335Z,28.00
2022-07-30T11:06:30.374Z,28.10
2022-07-30T11:09:41.065Z,28.20
2022-07-30T11:12:16.556Z,28.30
2022-07-30T11:15:07.279Z,28.30
2022-07-30T11:18:11.425Z,28.40
2022-07-30T11:21:21.269Z,28.40
2022-07-30T11:23:56.735Z,28.50
2022-07-30T11:26:53.781Z,28.40
2022-07-30T11:29:51.369Z,28.40
2022-07-30T11:32:31.310Z,28.40
2022-07-30T11:35:25.203Z,28.30
2022-07-30T11:38:06.978Z,28.40
2022-07-30T11:41:11.246Z,28.40
2022-07-30T11:43:46.304Z,28.50
2022-07-30T11:46:28.934Z,28.60
2022-07-30T11:49:08.741Z,28.70
2022-07-30T11:51:44.073Z,28.70
2022-07-30T11:54:18.761Z,28.80
2022-07-30T11:56:55.402Z,28.90
2022-07-30T11:59:30.317Z,28.90
2022-07-30T12:02:04.508Z,29.00
2022-07-30T12:04:45.082Z,29.00
2022-07-30T12:07:24.128Z,29.00
2022-07-30T12:10:16.673Z,29.10
2022-07-30T12:13:10.063Z,29.10
2022-07-30T12:15:47.947Z,29.20
2022-07-30T12:18:30.315Z,29.30
2022-07-30T12:21:08.194Z,29.40
2022-07-30T12:23:43.572Z,29.50
2022-07-30T12:26:24.660Z,29.50
2022-07-30T12:29:06.623Z,29.60
2022-07-30T12:31:42.894Z,29.70
2022-07-30T12:34:23.507Z,29.70
2022-07-30T12:37:07.825Z,29.80
2022-07-30T12:39:41.600Z,29.80
2022-07-30T12:42:20.041Z,29.80
2022-07-30T12:44:53.512Z,29.80
2022-07-30T12:47:30.739Z,29.80
2022-07-30T12:50:18.058Z,29.80
2022-07-30T12:52:53.512Z,29.90
2022-07-30T12:55:35.172Z,29.90
2022-07-30T12:58:09.320Z,29.90
2022-07-30T13:00:52.769Z,30.00
2022-07-30T13:03:39.197Z,30.00
2022-07-30T13:06:19.229Z,30.10
2022-07-30T13:08:56.331Z,30.10
2022-07-30T13:11:40.866Z,30.10
2022-07-30T13:14:17.061Z,30.10
2022-07-30T13:16:50.802Z,30.10
2022-07-30T13:19:26.880Z,30.20
2022-07-30T13:22:00.209Z,30.20
2022-07-30T13:24:34.153Z,30.20
2022-07-30T13:27:08.045Z,30.30
2022-07-30T13:29:41.594Z,30.30
2022-07-30T13:32:15.118Z,30.30
2022-07-30T13:34:49.920Z,30.20
2022-07-30T13:37:23.752Z,30.20
2022-07-30T13:40:16.643Z,30.10
2022-07-30T13:42:52.297Z,30.10
2022-07-30T13:45:25.913Z,30.10
2022-07-30T13:47:59.566Z,30.00
2022-07-30T13:50:36.433Z,30.00
2022-07-30T13:53:10.611Z,30.00
2022-07-30T13:55:45.724Z,30.00
2022-07-30T13:58:19.212Z,30.00
2022-07-30T14:00:56.585Z,30.00
2022-07-30T14:03:30.041Z,30.00
2022-07-30T14:06:10.938Z,30.00
2022-07-30T14:08:44.924Z,30.10
2022-07-30T14:11:18.818Z,30.20
2022-07-30T14:13:52.492Z,30.20
2022-07-30T14:16:44.270Z,30.30
2022-07-30T14:19:23.983Z,30.30
2022-07-30T14:21:59.394Z,30.40
2022-07-30T14:24:33.279Z,30.50
2022-07-30T14:27:07.049Z,30.50
2022-07-30T14:29:40.509Z,30.50
2022-07-30T14:32:13.982Z,30.60
2022-07-30T14:34:49.451Z,30.60
2022-07-30T14:37:25.044Z,30.60
2022-07-30T14:39:58.703Z,30.60
2022-07-30T14:42:32.295Z,30.60
2022-07-30T14:45:07.001Z,30.50
2022-07-30T14:47:40.646Z,30.50
2022-07-30T14:50:14.399Z,30.50
2022-07-30T14:52:49.563Z,30.50
2022-07-30T14:55:23.266Z,30.50
2022-07-30T14:57:56.748Z,30.50
2022-07-30T15:00:35.561Z,30.50
2022-07-30T15:03:22.240Z,30.40
2022-07-30T15:05:58.521Z,30.40
2022-07-30T15:08:33.362Z,30.30
2022-07-30T15:11:08.049Z,30.30
2022-07-30T15:13:50.623Z,30.20
2022-07-30T15:16:24.819Z,30.20
2022-07-30T15:18:58.258Z,30.20
2022-07-30T15:21:31.780Z,30.10
2022-07-30T15:24:07.408Z,30.10
2022-07-30T15:26:40.912Z,30.00
2022-07-30T15:29:17.371Z,30.00
2022-07-30T15:31:50.837Z,30.00
2022-07-30T15:34:24.399Z,30.00
2022-07-30T15:36:58.078Z,30.00
2022-07-30T15:39:33.579Z,29.90
2022-07-30T15:42:07.471Z,29.90
2022-07-30T15:44:48.415Z,30.00
2022-07-30T15:47:23.155Z,29.90
2022-07-30T15:49:56.658Z,29.90
2022-07-30T15:52:30.291Z,29.90
2022-07-30T15:55:05.562Z,29.90
2022-07-30T15:57:39.071Z,29.80
2022-07-30T16:00:13.781Z,29.80
2022-07-30T16:02:47.502Z,29.80
2022-07-30T16:05:20.961Z,29.80
2022-07-30T16:07:54.455Z,29.80
2022-07-30T16:10:32.873Z,29.80
2022-07-30T16:13:08.423Z,29.80
2022-07-30T16:15:41.914Z,29.80
2022-07-30T16:18:15.332Z,29.50
2022-07-30T16:20:49.310Z,29.80
2022-07-30T16:23:22.731Z,29.80
2022-07-30T16:25:57.499Z,29.80
2022-07-30T16:28:30.921Z,29.80
2022-07-30T16:31:05.390Z,29.80
2022-07-30T16:33:38.964Z,29.70
2022-07-30T16:36:14.251Z,29.70
2022-07-30T16:38:47.772Z,29.70
2022-07-30T16:41:22.725Z,29.60
2022-07-30T16:43:56.289Z,29.60
2022-07-30T16:46:29.784Z,29.60
2022-07-30T16:49:03.523Z,29.60
2022-07-30T16:51:37.619Z,29.60
2022-07-30T16:54:11.619Z,29.60
2022-07-30T16:56:46.563Z,29.60
2022-07-30T16:59:23.165Z,29.60
2022-07-30T17:01:56.895Z,29.60
2022-07-30T17:04:30.691Z,29.60
2022-07-30T17:07:04.240Z,29.60
2022-07-30T17:09:37.690Z,29.60
2022-07-30T17:12:12.696Z,29.60
2022-07-30T17:14:46.850Z,29.50
2022-07-30T17:17:20.312Z,29.50
2022-07-30T17:19:54.975Z,29.50
2022-07-30T17:22:28.891Z,29.40
2022-07-30T17:25:02.439Z,29.40
2022-07-30T17:27:37.479Z,29.40
2022-07-30T17:30:12.521Z,29.30
2022-07-30T17:32:46.277Z,29.30
2022-07-30T17:35:22.946Z,29.30
2022-07-30T17:37:56.351Z,29.20
2022-07-30T17:40:31.880Z,29.20
2022-07-30T17:43:07.826Z,29.20
2022-07-30T17:45:42.347Z,29.10
2022-07-30T17:48:15.836Z,29.10
2022-07-30T17:50:49.658Z,29.10
2022-07-30T17:53:23.352Z,29.10
2022-07-30T17:55:57.693Z,29.10
2022-07-30T17:58:33.390Z,29.10
2022-07-30T18:01:06.958Z,29.00
2022-07-30T18:03:45.113Z,29.00
2022-07-30T18:06:18.662Z,29.00
2022-07-30T18:08:53.122Z,29.00
2022-07-30T18:11:26.602Z,28.90
2022-07-30T18:14:09.279Z,28.90
2022-07-30T18:16:43.101Z,28.90
2022-07-30T18:19:22.904Z,28.80
2022-07-30T18:22:03.008Z,28.80
2022-07-30T18:24:40.013Z,28.80
2022-07-30T18:27:14.324Z,28.70
2022-07-30T18:29:49.073Z,28.70
2022-07-30T18:32:23.513Z,28.70
2022-07-30T18:34:56.913Z,28.60
2022-07-30T18:37:41.226Z,28.60
2022-07-30T18:40:23.787Z,28.60
2022-07-30T18:42:58.074Z,28.60
2022-07-30T18:45:36.980Z,28.50
2022-07-30T18:48:10.675Z,28.50
2022-07-30T18:50:44.018Z,28.50
2022-07-30T18:53:17.744Z,28.50
2022-07-30T18:55:51.204Z,28.40
2022-07-30T18:58:24.939Z,28.40
2022-07-30T19:01:00.381Z,28.40
2022-07-30T19:03:34.844Z,28.30
2022-07-30T19:06:08.302Z,28.30
2022-07-30T19:08:41.943Z,28.30
2022-07-30T19:11:15.530Z,28.20
2022-07-30T19:13:49.268Z,28.20
2022-07-30T19:16:24.050Z,28.20
2022-07-30T19:18:57.506Z,28.10
2022-07-30T19:21:31.821Z,28.10
2022-07-30T19:24:06.717Z,28.10
2022-07-30T19:26:41.398Z,28.10
2022-07-30T19:29:14.959Z,28.00
2022-07-30T19:31:50.149Z,28.00
2022-07-30T19:34:23.938Z,28.00
2022-07-30T19:36:57.339Z,28.00
2022-07-30T19:39:30.948Z,27.90
2022-07-30T19:42:09.811Z,27.90
2022-07-30T19:44:43.768Z,27.90
2022-07-30T19:47:20.367Z,27.80
2022-07-30T19:49:58.941Z,27.80
2022-07-30T19:52:33.656Z,27.80
2022-07-30T19:55:17.093Z,27.70
2022-07-30T19:58:02.435Z,27.70
2022-07-30T20:00:37.919Z,27.70
2022-07-30T20:03:15.526Z,27.70
2022-07-30T20:05:57.367Z,27.60
2022-07-30T20:08:32.981Z,27.60
2022-07-30T20:11:08.315Z,27.60
2022-07-30T20:13:44.826Z,27.60
2022-07-30T20:16:19.784Z,27.50
2022-07-30T20:18:54.571Z,27.50
2022-07-30T20:21:56.967Z,27.50
2022-07-30T20:24:21.508Z,27.50
2022-07-30T20:26:54.885Z,27.50
2022-07-30T20:29:28.649Z,27.40
2022-07-30T20:32:03.181Z,27.40
2022-07-30T20:34:38.887Z,27.40
2022-07-30T20:37:22.260Z,27.40
2022-07-30T20:39:56.231Z,27.40
2022-07-30T20:42:29.844Z,27.40
2022-07-30T20:45:03.527Z,27.30
2022-07-30T20:47:38.884Z,27.30
2022-07-30T20:50:14.697Z,27.30
2022-07-30T20:52:48.270Z,27.20
2022-07-30T20:55:22.121Z,27.20
2022-07-30T20:58:12.746Z,27.20
2022-07-30T21:00:50.863Z,27.10
2022-07-30T21:03:25.849Z,27.10
2022-07-30T21:06:06.282Z,27.10
2022-07-30T21:08:40.181Z,27.00
2022-07-30T21:11:14.582Z,27.00
2022-07-30T21:13:48.204Z,27.00
2022-07-30T21:16:23.639Z,27.00
2022-07-30T21:18:57.120Z,26.90
2022-07-30T21:21:41.714Z,26.90
2022-07-30T21:24:18.880Z,26.90
2022-07-30T21:26:54.345Z,26.90
2022-07-30T21:29:28.862Z,26.90
2022-07-30T21:32:03.451Z,26.90
2022-07-30T21:34:40.515Z,26.80
2022-07-30T21:37:18.986Z,26.80
2022-07-30T21:39:53.044Z,26.80
2022-07-30T21:45:20.924Z,26.80
2022-07-30T21:47:54.308Z,26.80
2022-07-30T21:50:28.018Z,26.70
2022-07-30T21:53:04.160Z,26.70
2022-07-30T21:55:39.258Z,26.70
2022-07-30T21:58:26.695Z,26.60
2022-07-30T22:01:16.380Z,26.60
2022-07-30T22:04:03.195Z,26.60
2022-07-30T22:06:43.289Z,26.50
2022-07-30T22:09:33.466Z,26.50
2022-07-30T22:12:10.014Z,26.50
2022-07-30T22:14:47.002Z,26.50
2022-07-30T22:17:36.899Z,26.50
2022-07-30T22:20:17.764Z,26.40
2022-07-30T22:22:55.255Z,26.10
2022-07-30T22:25:39.850Z,26.40
2022-07-30T22:28:19.737Z,26.40
2022-07-30T22:30:53.910Z,26.40
2022-07-30T22:33:30.201Z,26.30
2022-07-30T22:36:04.882Z,26.30
2022-07-30T22:38:43.228Z,26.30
2022-07-30T22:41:33.721Z,26.20
2022-07-30T22:44:10.226Z,26.20
2022-07-30T22:46:46.490Z,26.20
2022-07-30T22:49:46.570Z,26.10
2022-07-30T22:52:28.695Z,26.20
2022-07-30T22:55:09.040Z,26.10
2022-07-30T22:57:46.693Z,26.10
2022-07-30T23:00:28.262Z,26.10
2022-07-30T23:03:03.260Z,26.10
2022-07-30T23:05:41.069Z,26.10
2022-07-30T23:08:29.819Z,26.00
2022-07-30T23:11:04.109Z,26.00
2022-07-30T23:12:31.388Z,26.80
2022-07-30T23:13:39.397Z,25.90
2022-07-30T23:16:12.839Z,25.90
2022-07-30T23:18:46.463Z,25.90
2022-07-30T23:21:19.854Z,25.90
2022-07-30T23:23:53.367Z,25.80
2022-07-30T23:26:26.975Z,25.80
2022-07-30T23:29:03.122Z,25.80
2022-07-30T23:31:36.516Z,25.80
2022-07-30T23:34:09.848Z,25.70
2022-07-30T23:36:43.312Z,25.80
2022-07-30T23:39:16.859Z,25.70
2022-07-30T23:41:50.300Z,25.70
2022-07-30T23:44:25.193Z,25.70
2022-07-30T23:46:58.962Z,25.60
2022-07-30T23:49:32.861Z,25.60
2022-07-30T23:52:06.769Z,25.60
2022-07-30T23:54:40.136Z,25.50
2022-07-30T23:57:14.030Z,25.50
2022-07-30T23:59:48.721Z,25.50
